Time;durP1;ratioP1;P1;durP2;ratioP2;P2;SDS_P1;SDS_P2;PMS_P1;PMS_P2;Temp;Humidity;BMP_temperature;BMP_pressure;BME280_temperature;BME280_humidity;BME280_pressure;Samples;Min_cycle;Max_cycle;Signal;HPM_P1;HPM_P2
2021/06/14 00:01:33;;;;;;;17.87;6.43;;;13.40;1.00;;;;;;5052752;28;20437;-77
2021/06/14 00:04:07;;;;;;;9.77;5.40;;;13.40;1.00;;;;;;5053165;28;20399;-78
2021/06/14 00:17:24;;;;;;;10.70;5.20;;;13.20;1.00;;;;;;5054820;28;20460;-77
2021/06/14 00:20:01;;;;;;;14.40;5.40;;;13.20;1.00;;;;;;5056998;28;20443;-77
2021/06/14 00:26:37;;;;;;;6.00;3.90;;;13.10;1.00;;;;;;5036883;28;20520;-77
2021/06/14 00:32:07;;;;;;;11.73;5.10;;;13.00;1.00;;;;;;5036499;28;21078;-76
2021/06/14 00:35:24;;;;;;;19.73;6.03;;;12.90;1.00;;;;;;5036547;28;20387;-76
2021/06/14 00:38:14;;;;;;;11.80;5.50;;;12.90;1.00;;;;;;5037869;28;20529;-77
2021/06/14 00:40:49;;;;;;;12.70;5.73;;;12.90;1.00;;;;;;5036699;28;20387;-78
2021/06/14 00:43:19;;;;;;;7.63;4.87;;;;;;;;;;5036674;28;20391;-78
2021/06/14 00:49:07;;;;;;;10.00;5.20;;;12.80;1.00;;;;;;5036419;28;20406;-77
2021/06/14 00:51:43;;;;;;;23.53;6.37;;;12.70;1.00;;;;;;5036471;28;20905;-77
2021/06/14 00:54:09;;;;;;;7.87;5.17;;;12.70;1.00;;;;;;5036735;28;20160;-78
2021/06/14 01:04:01;;;;;;;12.33;5.70;;;12.60;1.00;;;;;;5036220;28;20432;-78
2021/06/14 01:09:48;;;;;;;10.47;5.37;;;12.50;1.00;;;;;;5036595;28;20803;-79
2021/06/14 01:15:48;;;;;;;8.67;4.40;;;12.50;1.00;;;;;;5035926;28;20227;-78
2021/06/14 01:21:51;;;;;;;10.00;4.93;;;12.40;1.00;;;;;;5036138;28;21178;-77
2021/06/14 01:27:50;;;;;;;10.00;4.93;;;12.30;1.00;;;;;;5035279;28;20823;-77
2021/06/14 01:30:25;;;;;;;17.73;5.50;;;12.30;1.00;;;;;;5035792;28;20383;-78
2021/06/14 01:33:03;;;;;;;12.13;5.93;;;12.30;1.00;;;;;;5035899;28;20387;-78
2021/06/14 01:36:20;;;;;;;22.63;5.77;;;12.30;1.00;;;;;;5035799;28;20393;-78
2021/06/14 01:38:48;;;;;;;14.07;6.70;;;12.30;1.00;;;;;;5035766;28;20403;-77
2021/06/14 01:41:15;;;;;;;8.50;5.63;;;12.20;1.00;;;;;;5035663;28;20391;-77
2021/06/14 01:54:02;;;;;;;21.57;6.33;;;12.10;1.00;;;;;;5035285;28;20394;-77
2021/06/14 01:56:41;;;;;;;13.80;5.63;;;12.10;1.00;;;;;;5035249;28;20391;-78
2021/06/14 01:59:17;;;;;;;7.30;4.50;;;12.10;1.00;;;;;;5035588;28;20403;-78
2021/06/14 02:01:46;;;;;;;7.53;4.90;;;12.10;1.00;;;;;;5035215;28;20480;-77
2021/06/14 02:04:48;;;;;;;8.20;5.10;;;12.10;1.00;;;;;;5035476;28;20398;-78
2021/06/14 02:07:37;;;;;;;12.10;5.40;;;12.00;1.00;;;;;;5053721;28;20448;-77
2021/06/14 02:10:22;;;;;;;10.20;4.80;;;12.10;1.00;;;;;;5055500;28;20441;-76
2021/06/14 02:12:48;;;;;;;12.83;4.87;;;;;;;;;;5068048;28;20421;-77
2021/06/14 02:15:16;;;;;;;12.80;5.40;;;12.10;1.00;;;;;;5034802;28;20392;-76
2021/06/14 02:18:02;;;;;;;18.93;6.40;;;12.10;1.00;;;;;;5035001;28;20414;-76
2021/06/14 02:20:48;;;;;;;9.93;5.20;;;;;;;;;;5035265;28;20403;-76
2021/06/14 02:23:19;;;;;;;9.20;5.10;;;12.10;1.00;;;;;;5035148;28;20738;-76
2021/06/14 02:29:14;;;;;;;15.97;6.27;;;12.00;1.00;;;;;;5034347;28;20377;-76
2021/06/14 02:31:43;;;;;;;12.87;5.10;;;12.00;1.00;;;;;;5035014;28;20475;-76
2021/06/14 02:34:48;;;;;;;10.63;5.60;;;12.00;1.00;;;;;;5034960;28;20975;-76
2021/06/14 02:37:33;;;;;;;12.30;5.30;;;12.00;1.00;;;;;;5034596;28;20423;-76
2021/06/14 02:43:22;;;;;;;11.57;5.43;;;11.90;1.00;;;;;;5034540;28;20774;-78
2021/06/14 02:49:14;;;;;;;13.07;5.90;;;11.90;1.00;;;;;;5044851;28;20476;-78
2021/06/14 02:51:51;;;;;;;11.60;5.10;;;11.90;1.00;;;;;;5054253;28;20452;-77
2021/06/14 02:54:35;;;;;;;9.03;5.17;;;11.90;1.00;;;;;;5054491;28;20902;-77
2021/06/14 03:00:25;;;;;;;8.20;4.70;;;11.90;1.00;;;;;;5053812;28;20365;-78
2021/06/14 03:03:13;;;;;;;18.53;6.00;;;11.80;1.00;;;;;;5050177;28;20442;-78
2021/06/14 03:09:04;;;;;;;9.13;5.00;;;11.80;1.00;;;;;;5033961;28;20407;-78
2021/06/14 03:12:01;;;;;;;13.20;5.60;;;11.80;1.00;;;;;;5034372;28;20410;-78
2021/06/14 03:17:51;;;;;;;20.53;5.13;;;11.80;1.00;;;;;;5034137;28;20394;-77
2021/06/14 03:20:25;;;;;;;14.40;5.43;;;11.80;1.00;;;;;;5033749;28;20390;-78
2021/06/14 03:26:14;;;;;;;10.70;5.13;;;;;;;;;;5033745;28;20465;-78
2021/06/14 03:28:45;;;;;;;16.43;6.13;;;11.70;1.00;;;;;;5033875;28;20438;-77
2021/06/14 03:31:15;;;;;;;13.93;5.80;;;11.70;1.00;;;;;;5033320;28;20387;-78
2021/06/14 03:37:03;;;;;;;10.93;5.07;;;11.70;1.00;;;;;;5046814;28;20429;-78
2021/06/14 03:39:29;;;;;;;19.30;5.63;;;;;;;;;;5052220;28;20391;-77
2021/06/14 03:41:56;;;;;;;9.63;5.50;;;11.70;1.00;;;;;;5052894;28;20386;-77
2021/06/14 03:44:31;;;;;;;14.43;5.97;;;11.70;1.00;;;;;;5053309;28;20405;-77
2021/06/14 03:50:19;;;;;;;11.07;5.87;;;11.60;1.00;;;;;;5052594;28;20414;-77
2021/06/14 03:53:02;;;;;;;16.30;5.47;;;11.60;1.00;;;;;;5052043;28;20409;-78
2021/06/14 03:55:31;;;;;;;13.20;5.40;;;11.60;1.00;;;;;;5053397;28;20388;-77
2021/06/14 03:58:30;;;;;;;16.63;6.17;;;11.60;1.00;;;;;;5053192;28;20394;-77
2021/06/14 04:01:30;;;;;;;16.03;7.23;;;;;;;;;;5052855;28;20751;-76
2021/06/14 04:07:19;;;;;;;7.70;4.93;;;11.70;1.00;;;;;;5011175;28;20439;-76
2021/06/14 04:09:49;;;;;;;11.33;5.90;;;11.70;1.00;;;;;;5011189;28;20400;-77
2021/06/14 04:12:32;;;;;;;7.93;4.83;;;;;;;;;;5011212;28;20911;-76
2021/06/14 04:15:13;;;;;;;9.63;5.40;;;11.80;1.00;;;;;;5011355;28;20522;-76
2021/06/14 04:18:30;;;;;;;8.27;4.67;;;11.90;1.00;;;;;;5011226;28;20407;-77
2021/06/14 04:21:19;;;;;;;11.30;4.97;;;11.90;1.00;;;;;;5027638;28;20423;-77
2021/06/14 04:24:01;;;;;;;14.37;5.97;;;12.00;1.00;;;;;;5030602;28;20491;-76
2021/06/14 04:27:00;;;;;;;7.57;5.00;;;12.00;1.00;;;;;;5031011;28;20851;-78
2021/06/14 04:29:43;;;;;;;13.87;4.90;;;12.00;1.00;;;;;;5030712;28;20422;-78
2021/06/14 04:33:00;;;;;;;7.23;4.97;;;12.10;1.00;;;;;;5030443;28;20838;-78
2021/06/14 04:35:49;;;;;;;18.00;6.40;;;12.20;1.00;;;;;;5014895;28;20434;-77
2021/06/14 04:38:33;;;;;;;14.53;5.90;;;12.30;1.00;;;;;;5030309;28;20442;-78
2021/06/14 04:41:01;;;;;;;8.80;4.77;;;12.30;1.00;;;;;;5031166;28;20366;-77
2021/06/14 04:46:49;;;;;;;24.87;6.43;;;;;;;;;;5030865;28;20478;-78
2021/06/14 04:49:49;;;;;;;10.50;5.30;;;12.50;1.00;;;;;;5039689;28;20520;-78
2021/06/14 04:52:31;;;;;;;10.33;5.33;;;12.70;1.00;;;;;;5049604;28;20421;-79
2021/06/14 04:55:13;;;;;;;11.43;5.43;;;12.70;1.00;;;;;;5032628;28;20395;-77
2021/06/14 04:57:55;;;;;;;22.17;6.67;;;;;;;;;;5032744;28;20427;-77
2021/06/14 05:00:42;;;;;;;11.70;5.30;;;;;;;;;;5034842;28;20771;-79
2021/06/14 05:03:19;;;;;;;15.37;5.50;;;13.00;1.00;;;;;;5043703;28;20436;-79
2021/06/14 05:05:49;;;;;;;9.00;4.97;;;13.10;1.00;;;;;;5055963;28;20428;-78
2021/06/14 05:08:32;;;;;;;9.13;4.80;;;13.20;1.00;;;;;;5050961;28;20766;-79
2021/06/14 05:11:07;;;;;;;13.13;4.70;;;13.30;1.00;;;;;;5043871;28;20414;-80
2021/06/14 05:13:49;;;;;;;15.60;5.50;;;13.40;1.00;;;;;;5034771;28;20390;-80
2021/06/14 05:16:26;;;;;;;12.10;5.33;;;;;;;;;;5049895;28;20905;-80
2021/06/14 05:19:30;;;;;;;9.13;5.40;;;13.60;1.00;;;;;;5055713;28;20394;-81
2021/06/14 05:22:19;;;;;;;8.10;4.80;;;13.70;1.00;;;;;;5055815;28;20372;-81
2021/06/14 05:24:55;;;;;;;8.67;5.20;;;13.80;1.00;;;;;;5038197;28;20828;-81
2021/06/14 05:27:21;;;;;;;10.90;4.40;;;;;;;;;;5043637;28;20435;-81
2021/06/14 05:29:47;;;;;;;10.00;5.47;;;;;;;;;;5055089;28;20418;-81
2021/06/14 05:32:31;;;;;;;13.60;5.77;;;14.20;1.00;;;;;;5048546;28;20451;-81
2021/06/14 05:35:31;;;;;;;10.27;4.67;;;14.30;1.00;;;;;;5037051;28;20415;-81
2021/06/14 05:38:01;;;;;;;11.57;4.73;;;;;;;;;;5036121;28;20402;-81
2021/06/14 05:40:31;;;;;;;10.40;4.77;;;14.50;1.00;;;;;;5051294;28;20968;-81
2021/06/14 05:43:01;;;;;;;9.23;5.10;;;14.70;1.00;;;;;;5035630;28;20395;-80
2021/06/14 05:45:27;;;;;;;9.20;4.13;;;;;;;;;;5042444;28;20432;-80
2021/06/14 05:47:53;;;;;;;13.40;5.00;;;;;;;;;;5054307;28;20391;-80
2021/06/14 05:50:19;;;;;;;11.83;4.20;;;;;;;;;;5054577;28;20391;-80
2021/06/14 05:52:45;;;;;;;8.70;4.50;;;;;;;;;;5052934;28;20821;-81
2021/06/14 05:55:11;;;;;;;10.00;4.50;;;;;;;;;;5051543;28;20410;-80
2021/06/14 05:57:37;;;;;;;12.67;4.17;;;;;;;;;;5054497;28;20414;-80
2021/06/14 06:00:13;;;;;;;16.57;4.50;;;15.60;1.00;;;;;;5053928;28;20481;-80
2021/06/14 06:02:39;;;;;;;7.50;3.67;;;;;;;;;;5054186;28;20429;-79
2021/06/14 06:05:07;;;;;;;6.13;3.97;;;15.80;1.00;;;;;;5040897;28;20433;-78
2021/06/14 06:07:32;;;;;;;5.63;3.33;;;15.90;1.00;;;;;;5033328;28;20483;-78
2021/06/14 06:09:58;;;;;;;6.67;3.67;;;;;;;;;;5036623;28;20472;-79
2021/06/14 06:12:24;;;;;;;6.60;3.50;;;16.20;1.00;;;;;;5054472;28;20164;-81
2021/06/14 06:14:50;;;;;;;3.83;3.30;;;;;;;;;;5053886;28;20421;-75
2021/06/14 06:17:16;;;;;;;11.70;3.53;;;16.40;1.00;;;;;;5053741;28;20247;-75
2021/06/14 06:19:42;;;;;;;9.80;3.93;;;;;;;;;;5053901;28;20463;-75
2021/06/14 06:22:07;;;;;;;4.23;3.13;;;16.60;1.00;;;;;;5053814;28;20183;-75
2021/06/14 06:24:33;;;;;;;7.63;3.40;;;;;;;;;;5035771;28;20419;-75
2021/06/14 06:27:00;;;;;;;10.27;3.60;;;;;;;;;;5043123;28;20226;-76
2021/06/14 06:29:26;;;;;;;5.47;3.00;;;16.90;1.00;;;;;;5054226;28;20503;-76
2021/06/14 06:31:52;;;;;;;6.37;3.50;;;;;;;;;;5053043;28;20369;-76
2021/06/14 06:34:18;;;;;;;5.40;3.17;;;;;;;;;;5053472;28;20395;-76
2021/06/14 06:36:44;;;;;;;9.67;3.50;;;17.20;1.00;;;;;;5053564;28;20521;-76
2021/06/14 06:39:10;;;;;;;4.97;3.10;;;;;;;;;;5052512;28;20376;-76
2021/06/14 06:41:36;;;;;;;5.43;3.50;;;;;;;;;;5033407;28;20161;-77
2021/06/14 06:44:02;;;;;;;5.83;3.33;;;;;;;;;;5033853;28;20374;-77
2021/06/14 06:46:27;;;;;;;5.70;3.27;;;17.70;1.00;;;;;;5047491;28;20437;-77
2021/06/14 06:48:53;;;;;;;4.93;3.43;;;;;;;;;;5052653;28;20404;-78
2021/06/14 06:51:19;;;;;;;6.37;3.63;;;17.80;1.00;;;;;;5053667;28;20161;-78
2021/06/14 06:53:44;;;;;;;6.97;3.17;;;18.00;1.00;;;;;;5048698;28;20466;-77
2021/06/14 06:56:10;;;;;;;4.17;3.07;;;;;;;;;;5053036;28;20180;-77
2021/06/14 06:58:36;;;;;;;4.97;3.20;;;;;;;;;;5053457;28;20193;-75
2021/06/14 07:01:03;;;;;;;9.33;3.67;;;18.30;1.00;;;;;;5052915;28;20410;-75
2021/06/14 07:03:29;;;;;;;4.77;3.40;;;;;;;;;;5052781;28;20413;-75
2021/06/14 07:05:55;;;;;;;5.63;2.90;;;18.60;1.00;;;;;;5053288;28;20455;-75
2021/06/14 07:08:25;;;;;;;6.90;3.30;;;18.80;1.00;;;;;;5040621;28;20469;-75
2021/06/14 07:10:55;;;;;;;7.20;2.97;;;18.90;1.00;;;;;;5033937;28;20400;-75
2021/06/14 07:13:25;;;;;;;6.50;2.80;;;19.10;1.00;;;;;;5034249;28;20408;-75
2021/06/14 07:16:07;;;;;;;4.90;3.00;;;19.10;1.00;;;;;;5034032;28;20905;-74
2021/06/14 07:18:37;;;;;;;11.13;3.63;;;19.20;1.00;;;;;;5033887;28;20851;-75
2021/06/14 07:21:03;;;;;;;12.33;2.97;;;19.40;1.00;;;;;;5053232;28;20903;-75
2021/06/14 07:23:28;;;;;;;4.93;2.80;;;19.60;1.00;;;;;;5053787;28;20407;-75
2021/06/14 07:26:13;;;;;;;5.23;2.67;;;19.70;1.00;;;;;;5053017;28;20605;-75
2021/06/14 07:28:49;;;;;;;5.00;3.20;;;19.80;1.00;;;;;;5054083;28;20155;-77
2021/06/14 07:31:37;;;;;;;10.60;4.10;;;20.00;1.00;;;;;;5053158;28;20798;-77
2021/06/14 07:34:08;;;;;;;9.20;3.23;;;20.00;1.00;;;;;;5053454;28;20437;-77
2021/06/14 07:37:18;;;;;;;9.57;3.17;;;20.30;1.00;;;;;;5053277;28;20390;-77
2021/06/14 07:39:50;;;;;;;4.97;2.83;;;20.40;1.00;;;;;;5053344;28;20394;-77
2021/06/14 07:42:49;;;;;;;6.17;3.13;;;20.50;1.00;;;;;;5053740;28;20398;-77
2021/06/14 07:45:24;;;;;;;9.87;2.77;;;20.60;1.00;;;;;;5053170;28;20455;-77
2021/06/14 07:48:08;;;;;;;6.70;3.17;;;20.70;1.00;;;;;;5053131;28;20477;-77
2021/06/14 07:51:19;;;;;;;3.60;2.80;;;20.70;1.00;;;;;;5053352;28;20405;-77
2021/06/14 07:54:07;;;;;;;11.70;3.60;;;20.80;1.00;;;;;;5053003;28;20440;-77
2021/06/14 07:56:51;;;;;;;5.53;3.00;;;20.90;1.00;;;;;;5053116;28;20466;-78
2021/06/14 07:59:20;;;;;;;4.30;2.57;;;;;;;;;;5053465;28;20834;-77
2021/06/14 08:01:45;;;;;;;11.63;3.77;;;21.20;1.00;;;;;;5052167;28;20375;-77
2021/06/14 08:04:49;;;;;;;8.17;3.13;;;21.30;1.00;;;;;;5052935;28;20405;-77
2021/06/14 08:07:19;;;;;;;9.90;3.73;;;21.40;1.00;;;;;;5052794;28;20179;-78
2021/06/14 08:10:01;;;;;;;6.37;2.97;;;;;;;;;;5053199;28;20798;-77
2021/06/14 08:12:26;;;;;;;8.23;2.70;;;21.60;1.00;;;;;;5053563;28;20415;-77
2021/06/14 08:15:39;;;;;;;5.87;2.90;;;21.70;1.00;;;;;;5053008;28;20450;-78
2021/06/14 08:19:01;;;;;;;6.83;3.00;;;21.70;1.00;;;;;;5051887;28;20246;-78
2021/06/14 08:25:07;;;;;;;7.50;2.57;;;21.90;1.00;;;;;;5052764;28;20435;-77
2021/06/14 08:27:49;;;;;;;6.33;2.80;;;22.00;1.00;;;;;;5063622;28;20439;-78
2021/06/14 08:30:32;;;;;;;3.00;2.20;;;22.20;1.00;;;;;;5053155;28;20482;-77
2021/06/14 08:33:19;;;;;;;5.13;2.97;;;22.30;1.00;;;;;;5053110;28;20393;-77
2021/06/14 08:35:45;;;;;;;2.97;2.30;;;22.30;1.00;;;;;;5052399;28;20401;-77
2021/06/14 08:38:10;;;;;;;7.03;3.00;;;22.40;1.00;;;;;;5056066;28;20419;-78
2021/06/14 08:40:49;;;;;;;8.10;2.70;;;22.50;1.00;;;;;;5056932;28;20389;-77
2021/06/14 08:43:17;;;;;;;7.37;3.30;;;22.70;1.00;;;;;;5056510;28;20303;-74
2021/06/14 08:45:51;;;;;;;6.80;2.30;;;22.60;1.00;;;;;;5056738;28;20449;-74
2021/06/14 08:48:20;;;;;;;3.63;2.40;;;22.70;1.00;;;;;;5056487;28;20482;-74
2021/06/14 08:50:46;;;;;;;5.30;2.57;;;22.90;1.00;;;;;;5056535;28;20387;-74
2021/06/14 08:53:11;;;;;;;3.13;2.50;;;22.90;1.00;;;;;;5056798;28;20931;-74
2021/06/14 08:55:49;;;;;;;9.30;3.10;;;23.00;1.00;;;;;;5056513;28;20397;-74
2021/06/14 08:58:19;;;;;;;5.70;2.60;;;23.10;1.00;;;;;;5056834;28;20228;-77
2021/06/14 09:00:49;;;;;;;6.97;2.43;;;23.10;1.00;;;;;;5055765;28;20885;-77
2021/06/14 09:03:23;;;;;;;12.20;2.57;;;23.10;1.00;;;;;;5055960;28;20879;-77
2021/06/14 09:05:56;;;;;;;8.40;3.10;;;23.20;1.00;;;;;;5056357;28;20437;-77
2021/06/14 09:08:31;;;;;;;4.33;2.77;;;23.10;1.00;;;;;;5056172;28;20454;-78
2021/06/14 09:11:02;;;;;;;10.47;2.70;;;23.20;1.00;;;;;;5055825;28;20394;-77
2021/06/14 09:13:33;;;;;;;53.53;8.10;;;23.30;1.00;;;;;;5052716;28;20420;-74
2021/06/14 09:16:12;;;;;;;13.10;2.73;;;23.40;1.00;;;;;;5043898;28;20495;-74
2021/06/14 09:18:40;;;;;;;4.30;2.50;;;23.50;1.00;;;;;;5045316;28;20442;-74
2021/06/14 09:21:16;;;;;;;7.67;2.80;;;23.50;1.00;;;;;;5055428;28;20422;-74
2021/06/14 09:23:46;;;;;;;7.60;2.87;;;23.60;1.00;;;;;;5055543;28;20948;-74
2021/06/14 09:26:31;;;;;;;12.07;3.43;;;23.60;1.00;;;;;;5058362;28;20452;-74
2021/06/14 09:29:10;;;;;;;9.57;3.10;;;23.70;1.00;;;;;;5075453;28;20404;-78
2021/06/14 09:31:46;;;;;;;3.10;1.93;;;23.80;1.00;;;;;;5074552;28;20455;-78
2021/06/14 09:34:39;;;;;;;3.57;2.47;;;23.80;1.00;;;;;;5049421;28;20797;-77
2021/06/14 09:37:21;;;;;;;10.13;2.87;;;;;;;;;;5035457;28;20432;-77
2021/06/14 09:40:01;;;;;;;6.47;2.80;;;24.10;1.00;;;;;;5042316;28;20424;-77
2021/06/14 09:42:55;;;;;;;4.37;2.60;;;24.30;1.00;;;;;;5053053;28;20849;-77
2021/06/14 09:45:26;;;;;;;3.90;2.17;;;24.50;1.00;;;;;;5055464;28;20443;-74
2021/06/14 09:47:54;;;;;;;7.80;2.50;;;24.60;1.00;;;;;;5055219;28;20396;-74
2021/06/14 09:50:56;;;;;;;4.63;2.60;;;24.60;1.00;;;;;;5054958;28;20424;-75
2021/06/14 09:53:30;;;;;;;8.27;2.83;;;24.90;1.00;;;;;;5055512;28;21049;-74
2021/06/14 09:55:55;;;;;;;13.83;3.63;;;24.80;1.00;;;;;;5054994;28;20412;-74
2021/06/14 09:59:07;;;;;;;6.00;2.30;;;24.80;1.00;;;;;;5055549;28;20404;-77
2021/06/14 10:02:18;;;;;;;3.70;2.70;;;24.60;1.00;;;;;;5055030;28;20166;-77
2021/06/14 10:05:13;;;;;;;9.73;3.70;;;24.80;1.00;;;;;;5054648;28;20943;-77
2021/06/14 10:07:50;;;;;;;5.70;2.30;;;24.80;1.00;;;;;;5055144;28;20405;-78
2021/06/14 10:10:31;;;;;;;4.17;2.23;;;24.90;1.00;;;;;;5053976;28;20443;-77
2021/06/14 10:13:26;;;;;;;9.67;2.53;;;25.00;1.00;;;;;;5054543;28;20894;-77
2021/06/14 10:16:00;;;;;;;7.00;2.80;;;24.90;1.00;;;;;;5048597;28;20491;-74
2021/06/14 10:18:54;;;;;;;4.23;1.83;;;25.00;1.00;;;;;;5065259;28;20460;-75
2021/06/14 10:21:52;;;;;;;14.67;2.63;;;25.00;1.00;;;;;;5054698;28;20432;-74
2021/06/14 10:24:20;;;;;;;8.53;2.70;;;25.10;1.00;;;;;;5034770;28;20409;-74
2021/06/14 10:26:51;;;;;;;23.77;3.80;;;;;;;;;;5040222;28;20769;-74
2021/06/14 10:29:32;;;;;;;13.43;3.23;;;;;;;;;;5054846;28;20489;-77
2021/06/14 10:32:07;;;;;;;9.57;3.20;;;25.40;1.00;;;;;;5054716;28;20396;-77
2021/06/14 10:34:37;;;;;;;7.20;2.53;;;25.50;1.00;;;;;;5054346;28;20420;-75
2021/06/14 10:37:07;;;;;;;15.23;2.80;;;25.50;1.00;;;;;;5054307;28;20509;-74
2021/06/14 10:39:47;;;;;;;15.40;3.80;;;25.70;1.00;;;;;;5053076;28;20447;-74
2021/06/14 10:42:13;;;;;;;4.27;2.77;;;25.70;1.00;;;;;;5054470;28;20411;-74
2021/06/14 10:44:39;;;;;;;2.90;2.37;;;25.80;1.00;;;;;;5053014;28;20424;-74
2021/06/14 10:47:08;;;;;;;20.43;3.60;;;25.80;1.00;;;;;;5053784;28;20453;-74
2021/06/14 10:49:55;;;;;;;4.67;2.70;;;25.90;1.00;;;;;;5054484;28;20449;-74
2021/06/14 10:52:21;;;;;;;22.57;3.40;;;25.90;1.00;;;;;;5041514;28;20449;-74
2021/06/14 10:54:47;;;;;;;2.60;1.83;;;;;;;;;;5034185;28;20401;-74
2021/06/14 10:57:19;;;;;;;15.30;2.67;;;26.10;1.00;;;;;;5034177;28;20794;-74
2021/06/14 10:59:46;;;;;;;15.40;4.00;;;26.20;1.00;;;;;;5033579;28;20455;-74
2021/06/14 11:02:14;;;;;;;5.07;2.67;;;26.30;1.00;;;;;;5033316;28;20400;-74
2021/06/14 11:04:42;;;;;;;6.00;2.57;;;26.50;1.00;;;;;;5034369;28;20397;-74
2021/06/14 11:07:08;;;;;;;2.40;1.97;;;26.50;1.00;;;;;;5033908;28;20445;-74
2021/06/14 11:09:44;;;;;;;4.50;2.30;;;26.50;1.00;;;;;;5033771;28;20533;-74
2021/06/14 11:12:24;;;;;;;4.10;2.63;;;26.50;1.00;;;;;;5036542;28;20427;-74
2021/06/14 11:15:13;;;;;;;2.97;1.83;;;26.60;1.00;;;;;;5054073;28;20449;-77
2021/06/14 11:17:43;;;;;;;5.27;2.27;;;26.70;1.00;;;;;;5038272;28;20507;-77
2021/06/14 11:20:14;;;;;;;3.37;2.23;;;26.80;1.00;;;;;;5053864;28;20388;-77
2021/06/14 11:22:55;;;;;;;5.97;2.57;;;26.90;1.00;;;;;;5054258;28;20371;-77
2021/06/14 11:26:13;;;;;;;6.83;2.53;;;26.70;1.00;;;;;;5052659;28;20484;-77
2021/06/14 11:28:56;;;;;;;2.23;2.03;;;26.70;1.00;;;;;;5033780;28;20406;-77
2021/06/14 11:32:03;;;;;;;25.07;4.10;;;26.80;1.00;;;;;;5035183;28;20475;-77
2021/06/14 11:34:58;;;;;;;6.47;2.37;;;26.90;1.00;;;;;;5051366;28;20498;-77
2021/06/14 11:37:47;;;;;;;3.93;2.20;;;27.00;1.00;;;;;;5053664;28;20432;-77
2021/06/14 11:40:16;;;;;;;5.10;1.87;;;27.10;1.00;;;;;;5053590;28;20494;-78
2021/06/14 11:43:05;;;;;;;3.27;2.30;;;27.00;1.00;;;;;;5053532;28;20413;-77
2021/06/14 11:45:35;;;;;;;12.47;2.73;;;27.00;1.00;;;;;;5053413;28;20442;-77
2021/06/14 11:48:21;;;;;;;5.43;2.70;;;27.00;1.00;;;;;;5053438;28;20434;-77
2021/06/14 11:51:25;;;;;;;13.27;2.43;;;27.10;1.00;;;;;;5052731;28;20411;-77
2021/06/14 11:53:57;;;;;;;2.77;2.00;;;27.20;1.00;;;;;;5033813;28;20391;-77
2021/06/14 11:57:19;;;;;;;6.43;2.50;;;27.20;1.00;;;;;;5051439;28;20401;-78
2021/06/14 11:59:44;;;;;;;2.00;1.53;;;27.20;1.00;;;;;;5053227;28;20426;-74
2021/06/14 12:02:25;;;;;;;10.23;2.70;;;27.40;1.00;;;;;;5047662;28;20415;-74
2021/06/14 12:04:52;;;;;;;6.83;2.10;;;27.50;1.00;;;;;;5053008;28;20160;-74
2021/06/14 12:07:35;;;;;;;7.43;2.20;;;27.70;1.00;;;;;;5067670;28;20513;-74
2021/06/14 12:10:13;;;;;;;6.90;2.27;;;27.80;1.00;;;;;;5047608;28;20436;-74
2021/06/14 12:12:39;;;;;;;1.93;1.53;;;;;;;;;;5035344;28;20749;-74
2021/06/14 12:15:07;;;;;;;17.57;2.20;;;28.00;1.00;;;;;;5037348;28;20405;-74
2021/06/14 12:17:42;;;;;;;3.33;1.70;;;28.00;1.00;;;;;;5037776;28;20436;-74
2021/06/14 12:20:09;;;;;;;3.67;2.03;;;27.80;1.00;;;;;;5037550;28;20862;-74
2021/06/14 12:22:36;;;;;;;3.00;1.30;;;27.90;1.00;;;;;;5035513;28;20793;-74
2021/06/14 12:25:11;;;;;;;6.03;2.00;;;28.00;1.00;;;;;;5036975;28;20406;-74
2021/06/14 12:27:37;;;;;;;1.57;1.20;;;28.10;1.00;;;;;;5050180;28;20765;-74
2021/06/14 12:30:19;;;;;;;4.17;2.00;;;28.20;1.00;;;;;;5056933;28;20391;-77
2021/06/14 12:33:07;;;;;;;5.57;2.23;;;28.20;1.00;;;;;;5057323;28;20392;-77
2021/06/14 12:35:52;;;;;;;2.40;1.57;;;28.30;1.00;;;;;;5057131;28;20881;-77
2021/06/14 12:38:18;;;;;;;5.40;2.40;;;28.30;1.00;;;;;;5057005;28;20431;-77
2021/06/14 12:40:49;;;;;;;3.30;1.70;;;28.40;1.00;;;;;;5056906;28;20394;-77
2021/06/14 12:43:19;;;;;;;5.57;1.40;;;28.60;99.90;;;;;;5057086;28;20173;-77
2021/06/14 12:45:50;;;;;;;4.97;1.70;;;28.70;1.00;;;;;;5056832;28;20452;-77
2021/06/14 12:48:50;;;;;;;12.00;2.50;;;28.80;1.00;;;;;;5053630;28;20526;-78
2021/06/14 12:51:38;;;;;;;2.30;1.83;;;28.90;1.00;;;;;;5041407;28;20437;-77
2021/06/14 12:54:04;;;;;;;13.10;2.87;;;29.00;1.00;;;;;;5036719;28;20408;-77
2021/06/14 12:56:31;;;;;;;3.33;1.87;;;29.00;99.90;;;;;;5035972;28;20941;-77
2021/06/14 12:59:49;;;;;;;1.63;1.33;;;29.00;99.90;;;;;;5036219;28;20486;-77
2021/06/14 13:02:15;;;;;;;1.87;1.70;;;28.90;1.00;;;;;;5036240;28;20394;-74
2021/06/14 13:04:50;;;;;;;7.07;2.03;;;28.90;1.00;;;;;;5045519;28;20966;-75
2021/06/14 13:07:20;;;;;;;8.53;2.20;;;29.10;1.00;;;;;;5036191;28;20406;-74
2021/06/14 13:09:51;;;;;;;7.17;2.07;;;29.10;1.00;;;;;;5034902;28;20782;-74
2021/06/14 13:12:31;;;;;;;2.10;1.80;;;29.00;99.90;;;;;;5054670;28;20450;-74
2021/06/14 13:15:37;;;;;;;3.70;1.73;;;28.90;99.90;;;;;;5056304;28;20483;-76
2021/06/14 13:18:31;;;;;;;8.40;1.70;;;28.90;1.00;;;;;;5036280;28;20398;-77
2021/06/14 13:21:07;;;;;;;4.07;2.37;;;29.10;99.90;;;;;;5035788;28;20401;-77
2021/06/14 13:23:57;;;;;;;7.43;1.90;;;29.10;99.90;;;;;;5042516;28;20441;-77
2021/06/14 13:26:52;;;;;;;2.93;1.97;;;;;;;;;;5055889;28;20777;-78
2021/06/14 13:29:28;;;;;;;4.10;2.27;;;29.10;1.00;;;;;;5050246;28;20953;-78
2021/06/14 13:32:10;;;;;;;4.13;2.17;;;29.20;1.00;;;;;;5056345;28;20424;-74
2021/06/14 13:35:07;;;;;;;6.77;2.70;;;29.20;99.90;;;;;;5055481;28;20419;-74
2021/06/14 13:37:46;;;;;;;13.60;3.47;;;29.40;99.90;;;;;;5055674;28;20450;-76
2021/06/14 13:40:18;;;;;;;2.90;1.70;;;29.60;1.00;;;;;;5050232;28;20416;-75
2021/06/14 13:42:49;;;;;;;5.20;1.93;;;29.60;1.00;;;;;;5055418;28;20553;-74
2021/06/14 13:45:17;;;;;;;2.53;2.00;;;29.80;1.00;;;;;;5035060;28;20806;-75
2021/06/14 13:47:43;;;;;;;2.13;1.93;;;30.00;1.00;;;;;;5035435;28;20917;-74
2021/06/14 13:50:10;;;;;;;4.00;1.80;;;;;;;;;;5035379;28;20751;-74
2021/06/14 13:52:43;;;;;;;7.63;1.67;;;30.30;99.90;;;;;;5035649;28;20785;-74
2021/06/14 13:55:13;;;;;;;12.60;2.87;;;30.20;99.90;;;;;;5035191;28;20485;-74
2021/06/14 13:58:01;;;;;;;4.20;2.00;;;30.40;99.90;;;;;;5043138;28;20425;-74
2021/06/14 14:00:32;;;;;;;7.70;1.80;;;30.40;99.90;;;;;;5055821;28;20382;-75
2021/06/14 14:02:57;;;;;;;4.63;2.37;;;30.40;99.90;;;;;;5054372;28;20426;-74
2021/06/14 14:05:26;;;;;;;3.80;1.90;;;30.40;1.00;;;;;;5055234;28;20481;-75
2021/06/14 14:07:56;;;;;;;10.10;2.47;;;30.40;99.90;;;;;;5054884;28;20163;-74
2021/06/14 14:10:23;;;;;;;2.13;1.90;;;;;;;;;;5055224;28;20410;-74
2021/06/14 14:12:49;;;;;;;1.90;1.33;;;30.20;99.90;;;;;;5041808;28;20418;-74
2021/06/14 14:15:15;;;;;;;13.10;3.17;;;30.20;99.90;;;;;;5035026;28;21071;-74
2021/06/14 14:17:42;;;;;;;2.00;1.80;;;30.30;99.90;;;;;;5035089;28;20395;-74
2021/06/14 14:20:09;;;;;;;4.77;1.90;;;30.40;99.90;;;;;;5048497;28;20429;-74
2021/06/14 14:22:36;;;;;;;1.50;1.40;;;;;;;;;;5054737;28;20883;-75
2021/06/14 14:25:08;;;;;;;1.70;1.60;;;30.50;99.90;;;;;;5054828;28;20390;-74
2021/06/14 14:27:34;;;;;;;3.47;1.53;;;30.60;99.90;;;;;;5054403;28;20423;-74
2021/06/14 14:30:45;;;;;;;4.43;1.87;;;30.50;99.90;;;;;;5053007;28;21121;-78
2021/06/14 14:33:25;;;;;;;7.20;1.60;;;30.50;99.90;;;;;;5040150;28;20790;-77
2021/06/14 14:36:06;;;;;;;3.47;2.20;;;30.50;99.90;;;;;;5040195;28;20449;-77
2021/06/14 14:38:49;;;;;;;6.10;2.23;;;30.50;99.90;;;;;;5037542;28;20473;-77
2021/06/14 14:41:39;;;;;;;1.83;1.73;;;30.70;99.90;;;;;;5054273;28;20410;-77
2021/06/14 14:44:23;;;;;;;6.27;2.47;;;30.80;99.90;;;;;;5054364;28;20391;-77
2021/06/14 14:47:19;;;;;;;2.60;1.70;;;30.80;99.90;;;;;;5054662;28;20385;-76
2021/06/14 14:53:07;;;;;;;2.93;1.60;;;;;;;;;;5053761;28;20935;-76
2021/06/14 14:55:36;;;;;;;4.53;1.90;;;30.80;99.90;;;;;;5046851;28;20458;-77
2021/06/14 14:58:25;;;;;;;3.43;1.60;;;30.90;99.90;;;;;;5048861;28;20441;-77
2021/06/14 15:01:31;;;;;;;3.13;2.37;;;31.00;99.90;;;;;;5034762;28;20430;-78
2021/06/14 15:04:09;;;;;;;2.50;1.60;;;30.80;99.90;;;;;;5034116;28;20461;-77
2021/06/14 15:06:43;;;;;;;8.80;1.87;;;31.10;99.90;;;;;;5034211;28;20410;-76
2021/06/14 15:09:09;;;;;;;4.93;1.90;;;;;;;;;;5039425;28;20484;-77
2021/06/14 15:11:36;;;;;;;7.10;1.73;;;34.20;99.90;;;;;;5053874;28;20403;-77
2021/06/14 15:14:06;;;;;;;4.37;1.63;;;36.30;99.90;;;;;;5054159;28;20405;-78
2021/06/14 15:16:32;;;;;;;8.93;2.40;;;38.60;99.90;;;;;;5053646;28;21091;-76
2021/06/14 15:18:58;;;;;;;5.90;1.80;;;39.90;99.90;;;;;;5053952;28;20402;-75
2021/06/14 15:21:24;;;;;;;3.30;1.50;;;;;;;;;;5048852;28;20894;-75
2021/06/14 15:23:52;;;;;;;1.40;1.30;;;41.80;99.90;;;;;;5053617;28;20160;-75
2021/06/14 15:26:20;;;;;;;1.50;1.30;;;43.70;99.90;;;;;;5053194;28;20406;-75
2021/06/14 15:28:47;;;;;;;1.60;1.00;;;43.60;99.90;;;;;;5053269;28;20433;-75
2021/06/14 15:31:20;;;;;;;1.33;1.17;;;45.70;99.90;;;;;;5052940;28;20414;-75
2021/06/14 15:34:06;;;;;;;1.00;0.90;;;46.30;99.90;;;;;;5053652;28;20460;-78
2021/06/14 15:36:32;;;;;;;0.93;0.83;;;48.00;99.90;;;;;;5052779;28;20454;-78